createdAt,value
2022-10-27T00:02:37.152Z,18.64
2022-10-27T00:05:40.638Z,18.84
2022-10-27T00:08:43.710Z,18.47
2022-10-27T00:14:50.878Z,18.35
2022-10-27T00:17:53.923Z,17.97
2022-10-27T00:21:04.362Z,17.82
2022-10-27T00:24:07.665Z,18.01
2022-10-27T00:27:11.044Z,17.60
2022-10-27T00:30:14.279Z,17.17
2022-10-27T00:33:17.440Z,17.08
2022-10-27T00:36:22.587Z,17.29
2022-10-27T00:39:25.721Z,17.69
2022-10-27T00:42:29.887Z,17.66
2022-10-27T00:45:33.009Z,17.26
2022-10-27T00:48:36.898Z,16.81
2022-10-27T00:51:44.062Z,16.79
2022-10-27T00:54:47.795Z,16.70
2022-10-27T00:57:53.836Z,16.71
2022-10-27T01:00:57.909Z,16.66
2022-10-27T01:04:01.066Z,16.58
2022-10-27T01:07:06.246Z,16.54
2022-10-27T01:10:09.610Z,16.40
2022-10-27T01:13:13.215Z,16.26
2022-10-27T01:16:46.090Z,16.52
2022-10-27T01:20:27.044Z,16.26
2022-10-27T01:23:48.133Z,16.11
2022-10-27T01:26:58.942Z,16.10
2022-10-27T01:30:10.201Z,15.98
2022-10-27T01:33:21.604Z,16.02
2022-10-27T01:36:28.770Z,15.75
2022-10-27T01:39:37.470Z,15.86
2022-10-27T01:42:50.662Z,15.75
2022-10-27T01:45:55.164Z,15.71
2022-10-27T01:48:58.408Z,15.61
2022-10-27T01:52:09.519Z,15.49
2022-10-27T01:55:28.873Z,15.57
2022-10-27T01:58:43.788Z,15.59
2022-10-27T02:02:06.291Z,15.36
2022-10-27T02:05:12.025Z,15.36
2022-10-27T02:08:32.467Z,15.47
2022-10-27T02:11:38.255Z,15.45
2022-10-27T02:14:43.340Z,15.38
2022-10-27T02:17:46.959Z,15.34
2022-10-27T02:20:52.643Z,14.65
2022-10-27T02:23:55.827Z,14.58
2022-10-27T02:27:17.055Z,14.57
2022-10-27T02:30:20.196Z,14.65
2022-10-27T02:33:23.589Z,14.37
2022-10-27T02:36:26.725Z,14.48
2022-10-27T02:39:29.891Z,14.36
2022-10-27T02:42:33.074Z,14.39
2022-10-27T02:45:36.247Z,14.41
2022-10-27T02:48:39.388Z,14.45
2022-10-27T02:51:42.476Z,14.39
2022-10-27T02:54:47.882Z,14.54
2022-10-27T02:57:51.004Z,14.39
2022-10-27T03:00:57.939Z,14.88
2022-10-27T03:04:01.087Z,14.46
2022-10-27T03:07:04.786Z,14.21
2022-10-27T03:10:08.329Z,14.11
2022-10-27T03:13:11.886Z,14.23
2022-10-27T03:16:14.934Z,14.03
2022-10-27T03:19:18.003Z,14.03
2022-10-27T03:22:21.706Z,13.85
2022-10-27T03:25:24.830Z,13.76
2022-10-27T03:28:28.171Z,14.25
2022-10-27T03:31:31.261Z,13.74
2022-10-27T03:34:34.421Z,13.72
2022-10-27T03:37:37.525Z,13.48
2022-10-27T03:40:41.255Z,13.80
2022-10-27T03:43:44.338Z,13.50
2022-10-27T03:46:47.452Z,13.30
2022-10-27T03:49:50.618Z,13.38
2022-10-27T03:52:53.944Z,13.35
2022-10-27T03:55:57.143Z,13.59
2022-10-27T03:59:02.877Z,13.32
2022-10-27T04:02:07.296Z,13.28
2022-10-27T04:05:10.728Z,13.39
2022-10-27T04:08:13.778Z,13.23
2022-10-27T04:11:17.337Z,13.33
2022-10-27T04:14:20.422Z,13.44
2022-10-27T04:17:23.539Z,13.25
2022-10-27T04:20:28.090Z,13.31
2022-10-27T04:23:32.122Z,13.77
2022-10-27T04:26:35.199Z,13.76
2022-10-27T04:29:38.334Z,13.49
2022-10-27T04:32:41.383Z,13.34
2022-10-27T04:35:44.624Z,13.37
2022-10-27T04:38:50.966Z,13.08
2022-10-27T04:41:54.143Z,13.05
2022-10-27T04:44:57.134Z,13.07
2022-10-27T04:48:00.586Z,12.68
2022-10-27T04:51:06.370Z,12.63
2022-10-27T04:54:09.624Z,12.80
2022-10-27T04:57:12.717Z,12.63
2022-10-27T05:00:16.820Z,12.38
2022-10-27T05:03:20.135Z,12.26
2022-10-27T05:06:25.862Z,12.55
2022-10-27T05:09:28.915Z,12.62
2022-10-27T05:12:32.110Z,12.93
2022-10-27T05:15:35.286Z,12.93
2022-10-27T05:18:38.421Z,12.89
2022-10-27T05:21:41.428Z,12.15
2022-10-27T05:24:46.530Z,12.19
2022-10-27T05:27:50.054Z,12.22
2022-10-27T05:30:57.968Z,12.24
2022-10-27T05:37:08.934Z,11.97
2022-10-27T05:40:12.528Z,11.89
2022-10-27T05:43:15.636Z,12.41
2022-10-27T05:46:18.894Z,12.27
2022-10-27T05:49:22.094Z,12.21
2022-10-27T05:52:25.138Z,12.34
2022-10-27T05:55:28.569Z,12.36
2022-10-27T05:58:31.612Z,12.50
2022-10-27T06:01:36.012Z,12.84
2022-10-27T06:04:39.135Z,12.85
2022-10-27T06:07:43.269Z,12.96
2022-10-27T06:10:47.152Z,12.91
2022-10-27T06:13:51.180Z,13.12
2022-10-27T06:16:54.284Z,12.30
2022-10-27T06:19:57.537Z,12.13
2022-10-27T06:23:00.938Z,11.75
2022-10-27T06:26:04.305Z,12.08
2022-10-27T06:29:07.379Z,11.93
2022-10-27T06:32:10.625Z,11.78
2022-10-27T06:35:14.703Z,11.75
2022-10-27T06:38:17.766Z,11.85
2022-10-27T06:41:20.790Z,11.52
2022-10-27T06:44:24.794Z,12.03
2022-10-27T06:47:27.803Z,11.84
2022-10-27T06:50:33.461Z,11.54
2022-10-27T06:53:36.464Z,11.31
2022-10-27T06:56:40.905Z,11.31
2022-10-27T06:59:43.971Z,11.58
2022-10-27T07:02:47.264Z,11.73
2022-10-27T07:05:50.285Z,11.65
2022-10-27T07:11:58.799Z,11.24
2022-10-27T07:15:01.886Z,11.44
2022-10-27T07:18:07.791Z,11.69
2022-10-27T07:21:10.926Z,11.74
2022-10-27T07:24:14.574Z,11.39
2022-10-27T07:27:17.812Z,11.20
2022-10-27T07:30:26.324Z,11.38
2022-10-27T07:33:29.483Z,11.71
2022-10-27T07:36:32.544Z,11.86
2022-10-27T07:39:38.108Z,11.90
2022-10-27T07:42:48.621Z,12.00
2022-10-27T07:45:51.816Z,12.40
2022-10-27T07:48:54.834Z,11.79
2022-10-27T07:51:58.007Z,11.75
2022-10-27T07:55:01.042Z,12.00
2022-10-27T07:58:14.896Z,12.14
2022-10-27T08:01:18.041Z,11.63
2022-10-27T08:04:21.246Z,11.27
2022-10-27T08:07:24.763Z,10.91
2022-10-27T08:10:30.784Z,11.42
2022-10-27T08:13:34.031Z,11.91
2022-10-27T08:16:37.200Z,12.04
2022-10-27T08:19:40.902Z,11.93
2022-10-27T08:22:44.130Z,11.57
2022-10-27T08:25:47.357Z,11.21
2022-10-27T08:28:50.421Z,11.13
2022-10-27T08:31:54.273Z,11.16
2022-10-27T08:34:57.398Z,11.16
2022-10-27T08:38:13.154Z,10.97
2022-10-27T08:41:25.454Z,11.11
2022-10-27T08:44:44.838Z,11.33
2022-10-27T08:47:50.608Z,11.14
2022-10-27T08:50:54.419Z,11.46
2022-10-27T08:53:57.624Z,11.48
2022-10-27T08:57:01.513Z,11.45
2022-10-27T09:00:05.016Z,11.10
2022-10-27T09:03:31.626Z,11.03
2022-10-27T09:06:53.225Z,10.86
2022-10-27T09:09:59.380Z,10.52
2022-10-27T09:13:26.659Z,10.60
2022-10-27T09:16:42.986Z,10.99
2022-10-27T09:19:56.335Z,11.07
2022-10-27T09:23:01.871Z,11.24
2022-10-27T09:26:06.829Z,11.27
2022-10-27T09:29:24.952Z,11.43
2022-10-27T09:32:28.408Z,11.73
2022-10-27T09:35:31.484Z,11.85
2022-10-27T09:38:34.629Z,11.97
2022-10-27T09:41:37.816Z,12.07
2022-10-27T09:44:41.431Z,12.23
2022-10-27T09:47:49.064Z,12.48
2022-10-27T09:50:58.447Z,12.19
2022-10-27T09:54:01.592Z,12.17
2022-10-27T09:57:18.454Z,12.29
2022-10-27T10:00:27.932Z,12.44
2022-10-27T10:03:31.124Z,12.45
2022-10-27T10:06:37.929Z,12.03
2022-10-27T10:09:42.061Z,11.86
2022-10-27T10:12:45.119Z,11.94
2022-10-27T10:15:48.400Z,12.17
2022-10-27T10:19:07.513Z,11.86
2022-10-27T10:22:32.123Z,11.93
2022-10-27T10:25:42.778Z,11.98
2022-10-27T10:28:46.281Z,12.12
2022-10-27T10:31:49.324Z,11.73
2022-10-27T10:34:52.946Z,12.08
2022-10-27T10:38:00.434Z,11.97
2022-10-27T10:41:15.437Z,11.65
2022-10-27T10:44:18.750Z,11.80
2022-10-27T10:47:29.830Z,11.99
2022-10-27T10:50:33.608Z,11.99
2022-10-27T10:53:49.808Z,11.94
2022-10-27T10:56:54.679Z,11.97
2022-10-27T10:59:58.560Z,12.11
2022-10-27T11:03:16.886Z,12.09
2022-10-27T11:06:21.592Z,12.05
2022-10-27T11:09:28.823Z,12.41
2022-10-27T11:12:44.979Z,12.21
2022-10-27T11:15:52.065Z,12.11
2022-10-27T11:19:02.529Z,12.14
2022-10-27T11:22:11.195Z,12.21
2022-10-27T11:25:35.655Z,11.93
2022-10-27T11:28:46.934Z,12.04
2022-10-27T11:32:07.985Z,12.04
2022-10-27T11:35:41.778Z,12.06
2022-10-27T11:39:01.623Z,11.73
2022-10-27T11:42:22.784Z,11.64
2022-10-27T11:45:34.043Z,11.72
2022-10-27T11:48:45.924Z,11.40
2022-10-27T11:52:01.562Z,11.48
2022-10-27T11:55:07.210Z,11.50
2022-10-27T11:58:23.642Z,11.58
2022-10-27T12:01:53.439Z,11.17
2022-10-27T12:05:12.831Z,11.30
2022-10-27T12:08:40.262Z,11.20
2022-10-27T12:12:20.607Z,11.50
2022-10-27T12:15:35.206Z,11.57
2022-10-27T12:18:49.015Z,11.53
2022-10-27T12:21:59.695Z,11.47
2022-10-27T12:25:19.382Z,11.59
2022-10-27T12:28:23.500Z,11.13
2022-10-27T12:31:28.304Z,11.12
2022-10-27T12:34:40.799Z,11.09
2022-10-27T12:38:13.625Z,10.92
2022-10-27T12:41:58.102Z,10.84
2022-10-27T12:45:19.570Z,11.18
2022-10-27T12:48:38.487Z,11.11
2022-10-27T12:52:01.699Z,11.59
2022-10-27T12:55:25.761Z,11.09
2022-10-27T12:58:54.818Z,11.51
2022-10-27T13:02:01.372Z,11.02
2022-10-27T13:05:22.548Z,11.46
2022-10-27T13:08:40.510Z,11.52
2022-10-27T13:12:12.999Z,11.78
2022-10-27T13:15:51.853Z,11.62
2022-10-27T13:19:04.043Z,12.08
2022-10-27T13:22:23.194Z,12.00
2022-10-27T13:25:36.879Z,11.63
2022-10-27T13:28:53.153Z,11.74
2022-10-27T13:32:17.776Z,11.53
2022-10-27T13:35:20.849Z,12.00
2022-10-27T13:38:26.265Z,12.20
2022-10-27T13:42:03.732Z,12.08
2022-10-27T13:45:28.427Z,12.03
2022-10-27T13:48:34.612Z,12.15
2022-10-27T13:51:49.263Z,12.20
2022-10-27T13:55:08.635Z,12.43
2022-10-27T13:58:20.864Z,12.42
2022-10-27T14:01:29.631Z,12.93
2022-10-27T14:04:49.595Z,12.65
2022-10-27T14:07:53.760Z,13.04
2022-10-27T14:11:03.261Z,13.30
2022-10-27T14:14:38.987Z,13.41
2022-10-27T14:17:44.070Z,13.37
2022-10-27T14:20:47.424Z,13.27
2022-10-27T14:23:51.270Z,13.49
2022-10-27T14:27:02.416Z,14.04
2022-10-27T14:30:21.643Z,13.67
2022-10-27T14:33:26.472Z,13.89
2022-10-27T14:36:32.030Z,14.36
2022-10-27T14:39:36.914Z,14.89
2022-10-27T14:42:41.283Z,14.30
2022-10-27T14:45:44.701Z,14.50
2022-10-27T14:48:54.740Z,15.32
2022-10-27T14:51:59.203Z,14.88
2022-10-27T14:55:03.279Z,14.65
2022-10-27T14:58:07.823Z,15.03
2022-10-27T15:01:27.385Z,15.38
2022-10-27T15:04:33.655Z,15.45
2022-10-27T15:07:37.492Z,15.65
2022-10-27T15:10:44.429Z,15.53
2022-10-27T15:13:48.105Z,15.84
2022-10-27T15:16:52.137Z,16.07
2022-10-27T15:20:03.114Z,15.77
2022-10-27T15:23:06.201Z,16.23
2022-10-27T15:26:25.433Z,16.24
2022-10-27T15:29:28.651Z,16.61
2022-10-27T15:32:34.112Z,16.76
2022-10-27T15:35:37.226Z,17.02
2022-10-27T15:38:40.589Z,17.36
2022-10-27T15:41:49.139Z,17.22
2022-10-27T15:44:52.472Z,17.43
2022-10-27T15:47:55.619Z,17.50
2022-10-27T15:51:07.930Z,17.86
2022-10-27T15:54:31.710Z,17.88
2022-10-27T15:57:39.461Z,17.52
2022-10-27T16:00:42.765Z,17.73
2022-10-27T16:03:58.677Z,17.95
2022-10-27T16:07:28.321Z,17.98
2022-10-27T16:10:31.447Z,18.93
2022-10-27T16:13:34.478Z,17.38
2022-10-27T16:16:38.022Z,18.19
2022-10-27T16:19:41.897Z,18.58
2022-10-27T16:22:45.154Z,19.21
2022-10-27T16:25:48.698Z,18.59
2022-10-27T16:28:52.832Z,18.65
2022-10-27T16:31:57.311Z,18.73
2022-10-27T16:35:00.430Z,19.41
2022-10-27T16:38:03.471Z,19.38
2022-10-27T16:41:06.880Z,20.12
2022-10-27T16:44:14.599Z,20.10
2022-10-27T16:47:18.948Z,20.14
2022-10-27T16:50:22.091Z,20.68
2022-10-27T16:53:25.257Z,20.04
2022-10-27T16:56:28.304Z,21.00
2022-10-27T16:59:31.467Z,21.36
2022-10-27T17:02:35.424Z,21.31
2022-10-27T17:05:38.540Z,21.36
2022-10-27T17:08:41.736Z,21.03
2022-10-27T17:11:46.248Z,21.98
2022-10-27T17:14:50.814Z,22.24
2022-10-27T17:17:54.699Z,21.69
2022-10-27T17:20:58.972Z,21.14
2022-10-27T17:24:02.125Z,20.59
2022-10-27T17:27:06.005Z,21.54
2022-10-27T17:30:09.755Z,21.86
2022-10-27T17:33:12.909Z,21.09
2022-10-27T17:36:16.217Z,21.07
2022-10-27T17:39:19.265Z,21.68
2022-10-27T17:42:22.610Z,21.15
2022-10-27T17:45:25.634Z,20.80
2022-10-27T17:48:30.441Z,21.79
2022-10-27T17:51:34.278Z,21.84
2022-10-27T17:54:37.369Z,21.58
2022-10-27T17:57:40.454Z,21.14
2022-10-27T18:00:43.553Z,21.45
2022-10-27T18:03:48.958Z,21.38
2022-10-27T18:06:52.059Z,21.65
2022-10-27T18:09:55.090Z,22.22
2022-10-27T18:12:58.157Z,21.58
2022-10-27T18:16:01.479Z,21.93
2022-10-27T18:19:15.737Z,22.24
2022-10-27T18:22:18.783Z,22.44
2022-10-27T18:25:21.844Z,22.57
2022-10-27T18:28:27.608Z,22.53
2022-10-27T18:31:34.141Z,22.73
2022-10-27T18:34:38.678Z,22.73
2022-10-27T18:37:41.998Z,22.85
2022-10-27T18:40:45.196Z,22.85
2022-10-27T18:43:49.737Z,22.85
2022-10-27T18:46:52.815Z,22.07
2022-10-27T18:49:55.906Z,22.48
2022-10-27T18:53:01.452Z,22.72
2022-10-27T18:56:07.320Z,23.07
2022-10-27T18:59:11.056Z,22.58
2022-10-27T19:02:15.451Z,22.71
2022-10-27T19:05:18.591Z,23.23
2022-10-27T19:08:21.815Z,23.50
2022-10-27T19:11:25.339Z,22.10
2022-10-27T19:14:28.463Z,22.23
2022-10-27T19:17:31.633Z,22.33
2022-10-27T19:20:35.021Z,22.18
2022-10-27T19:23:38.198Z,22.14
2022-10-27T19:26:41.318Z,22.79
2022-10-27T19:29:46.387Z,23.55
2022-10-27T19:32:50.205Z,22.95
2022-10-27T19:35:53.481Z,23.21
2022-10-27T19:38:59.984Z,23.22
2022-10-27T19:42:03.202Z,22.56
2022-10-27T19:45:06.494Z,23.51
2022-10-27T19:48:09.627Z,23.19
2022-10-27T19:51:14.552Z,23.51
2022-10-27T19:54:22.195Z,23.85
2022-10-27T19:57:25.315Z,23.80
2022-10-27T20:03:36.390Z,24.50
2022-10-27T20:06:43.016Z,24.51
2022-10-27T20:09:46.130Z,23.83
2022-10-27T20:12:50.027Z,24.39
2022-10-27T20:15:53.711Z,24.93
2022-10-27T20:19:01.920Z,24.01
2022-10-27T20:22:07.377Z,23.71
2022-10-27T20:25:10.748Z,23.27
2022-10-27T20:28:13.913Z,23.40
2022-10-27T20:31:17.005Z,23.36
2022-10-27T20:34:20.085Z,23.97
2022-10-27T20:37:23.289Z,24.02
2022-10-27T20:40:26.634Z,23.84
2022-10-27T20:43:29.788Z,23.23
2022-10-27T20:46:34.505Z,22.72
2022-10-27T20:49:37.740Z,23.11
2022-10-27T20:55:43.645Z,23.67
2022-10-27T20:58:46.846Z,24.00
2022-10-27T21:01:50.129Z,24.09
2022-10-27T21:04:53.351Z,24.03
2022-10-27T21:07:56.429Z,24.31
2022-10-27T21:11:02.195Z,24.11
2022-10-27T21:14:06.496Z,23.83
2022-10-27T21:17:09.591Z,23.85
2022-10-27T21:20:13.042Z,24.00
2022-10-27T21:23:16.281Z,24.14
2022-10-27T21:26:21.827Z,24.67
2022-10-27T21:29:25.039Z,24.21
2022-10-27T21:32:29.263Z,24.01
2022-10-27T21:35:32.467Z,24.06
2022-10-27T21:38:43.827Z,24.54
2022-10-27T21:41:46.985Z,24.60
2022-10-27T21:44:50.740Z,24.75
2022-10-27T21:47:54.252Z,25.15
2022-10-27T21:50:57.885Z,27.40
2022-10-27T21:54:03.072Z,27.46
2022-10-27T21:57:06.203Z,25.69
2022-10-27T22:00:09.801Z,25.42
2022-10-27T22:03:12.983Z,25.50
2022-10-27T22:06:33.392Z,24.30
2022-10-27T22:09:36.466Z,24.09
2022-10-27T22:12:39.598Z,23.79
2022-10-27T22:15:42.716Z,23.96
2022-10-27T22:18:48.812Z,23.96
2022-10-27T22:21:51.974Z,24.09
2022-10-27T22:24:55.129Z,24.01
2022-10-27T22:27:58.233Z,24.01
2022-10-27T22:31:06.865Z,23.73
2022-10-27T22:34:10.578Z,23.73
2022-10-27T22:37:13.931Z,23.59
2022-10-27T22:40:20.122Z,23.64
2022-10-27T22:43:25.607Z,23.53
2022-10-27T22:46:31.345Z,23.36
2022-10-27T22:49:34.711Z,23.33
2022-10-27T22:52:37.885Z,22.90
2022-10-27T22:55:40.990Z,22.92
2022-10-27T22:58:54.657Z,22.67
2022-10-27T23:01:57.883Z,22.67
2022-10-27T23:05:01.071Z,22.39
2022-10-27T23:08:04.269Z,22.42
2022-10-27T23:11:08.246Z,22.36
2022-10-27T23:14:13.147Z,22.17
2022-10-27T23:17:16.247Z,22.16
2022-10-27T23:20:19.452Z,21.66
2022-10-27T23:23:23.381Z,21.50
2022-10-27T23:26:33.356Z,21.55
2022-10-27T23:29:37.125Z,21.46
2022-10-27T23:32:40.368Z,21.36
2022-10-27T23:35:44.030Z,21.13
2022-10-27T23:38:47.202Z,20.89
2022-10-27T23:41:52.300Z,20.53
2022-10-27T23:44:55.793Z,20.33
2022-10-27T23:47:58.893Z,20.18
2022-10-27T23:51:02.206Z,20.03
2022-10-27T23:54:05.409Z,19.87
2022-10-27T23:57:08.557Z,19.89
